sensor_id;sensor_type;location;lat;lon;timestamp;P1;durP1;ratioP1;P2;durP2;ratioP2
57667;SDS011;43499;52.366;12.912;2023-05-07T00:00:46;22.58;;;12.20;;
57667;SDS011;43499;52.366;12.912;2023-05-07T00:01:47;20.00;;;11.93;;
57667;SDS011;43499;52.366;12.912;2023-05-07T00:02:48;21.27;;;11.02;;
57667;SDS011;43499;52.366;12.912;2023-05-07T00:03:49;19.70;;;12.23;;
57667;SDS011;43499;52.366;12.912;2023-05-07T00:04:50;21.83;;;11.55;;
57667;SDS011;43499;52.366;12.912;2023-05-07T00:05:52;20.10;;;13.23;;
57667;SDS011;43499;52.366;12.912;2023-05-07T00:06:53;19.05;;;12.75;;
57667;SDS011;43499;52.366;12.912;2023-05-07T00:07:55;17.92;;;12.10;;
57667;SDS011;43499;52.366;12.912;2023-05-07T00:08:57;22.25;;;11.80;;
57667;SDS011;43499;52.366;12.912;2023-05-07T00:09:58;16.40;;;10.63;;
57667;SDS011;43499;52.366;12.912;2023-05-07T00:10:59;15.93;;;10.38;;
57667;SDS011;43499;52.366;12.912;2023-05-07T00:12:00;18.17;;;10.18;;
57667;SDS011;43499;52.366;12.912;2023-05-07T00:13:01;19.48;;;10.75;;
57667;SDS011;43499;52.366;12.912;2023-05-07T00:14:02;18.13;;;11.45;;
57667;SDS011;43499;52.366;12.912;2023-05-07T00:15:03;17.02;;;11.02;;
57667;SDS011;43499;52.366;12.912;2023-05-07T00:16:06;18.23;;;10.98;;
57667;SDS011;43499;52.366;12.912;2023-05-07T00:17:07;15.50;;;10.23;;
57667;SDS011;43499;52.366;12.912;2023-05-07T00:18:09;26.10;;;11.65;;
57667;SDS011;43499;52.366;12.912;2023-05-07T00:19:10;18.65;;;10.07;;
57667;SDS011;43499;52.366;12.912;2023-05-07T00:20:11;15.95;;;9.65;;
57667;SDS011;43499;52.366;12.912;2023-05-07T00:21:12;16.17;;;10.18;;
57667;SDS011;43499;52.366;12.912;2023-05-07T00:22:13;20.75;;;10.73;;
57667;SDS011;43499;52.366;12.912;2023-05-07T00:23:14;17.88;;;10.57;;
57667;SDS011;43499;52.366;12.912;2023-05-07T00:24:15;17.75;;;10.43;;
57667;SDS011;43499;52.366;12.912;2023-05-07T00:25:16;16.30;;;10.40;;
57667;SDS011;43499;52.366;12.912;2023-05-07T00:26:20;20.75;;;12.07;;
57667;SDS011;43499;52.366;12.912;2023-05-07T00:27:24;14.77;;;9.70;;
57667;SDS011;43499;52.366;12.912;2023-05-07T00:28:25;14.05;;;10.00;;
57667;SDS011;43499;52.366;12.912;2023-05-07T00:29:26;16.05;;;9.65;;
57667;SDS011;43499;52.366;12.912;2023-05-07T00:30:27;15.15;;;10.52;;
57667;SDS011;43499;52.366;12.912;2023-05-07T00:31:28;13.95;;;10.38;;
57667;SDS011;43499;52.366;12.912;2023-05-07T00:32:29;18.85;;;10.23;;
57667;SDS011;43499;52.366;12.912;2023-05-07T00:33:30;16.27;;;9.35;;
57667;SDS011;43499;52.366;12.912;2023-05-07T00:34:31;12.02;;;7.20;;
57667;SDS011;43499;52.366;12.912;2023-05-07T00:35:32;16.02;;;10.63;;
57667;SDS011;43499;52.366;12.912;2023-05-07T00:36:33;16.83;;;10.93;;
57667;SDS011;43499;52.366;12.912;2023-05-07T00:37:34;16.05;;;10.43;;
57667;SDS011;43499;52.366;12.912;2023-05-07T00:38:36;15.75;;;9.85;;
57667;SDS011;43499;52.366;12.912;2023-05-07T00:39:37;23.85;;;10.90;;
57667;SDS011;43499;52.366;12.912;2023-05-07T00:40:38;9.00;;;5.95;;
57667;SDS011;43499;52.366;12.912;2023-05-07T00:41:39;11.80;;;7.90;;
57667;SDS011;43499;52.366;12.912;2023-05-07T00:42:40;13.35;;;9.65;;
57667;SDS011;43499;52.366;12.912;2023-05-07T00:43:41;18.90;;;10.18;;
57667;SDS011;43499;52.366;12.912;2023-05-07T00:44:42;15.07;;;10.65;;
57667;SDS011;43499;52.366;12.912;2023-05-07T00:45:43;12.98;;;8.45;;
57667;SDS011;43499;52.366;12.912;2023-05-07T00:46:44;13.85;;;9.73;;
57667;SDS011;43499;52.366;12.912;2023-05-07T00:47:50;20.27;;;10.73;;
57667;SDS011;43499;52.366;12.912;2023-05-07T00:48:51;19.38;;;11.57;;
57667;SDS011;43499;52.366;12.912;2023-05-07T00:49:53;15.82;;;9.40;;
57667;SDS011;43499;52.366;12.912;2023-05-07T00:50:55;16.15;;;9.43;;
57667;SDS011;43499;52.366;12.912;2023-05-07T00:51:57;15.57;;;9.13;;
57667;SDS011;43499;52.366;12.912;2023-05-07T00:52:58;9.43;;;7.05;;
57667;SDS011;43499;52.366;12.912;2023-05-07T00:54:01;11.88;;;8.00;;
57667;SDS011;43499;52.366;12.912;2023-05-07T00:55:04;16.42;;;9.73;;
57667;SDS011;43499;52.366;12.912;2023-05-07T00:56:07;17.02;;;10.55;;
57667;SDS011;43499;52.366;12.912;2023-05-07T00:57:11;15.00;;;10.35;;
57667;SDS011;43499;52.366;12.912;2023-05-07T00:58:12;16.02;;;9.32;;
57667;SDS011;43499;52.366;12.912;2023-05-07T00:59:13;14.52;;;10.00;;
57667;SDS011;43499;52.366;12.912;2023-05-07T01:00:14;14.48;;;9.48;;
57667;SDS011;43499;52.366;12.912;2023-05-07T01:01:15;13.77;;;10.05;;
57667;SDS011;43499;52.366;12.912;2023-05-07T01:02:17;14.52;;;9.65;;
57667;SDS011;43499;52.366;12.912;2023-05-07T01:03:18;17.17;;;10.90;;
57667;SDS011;43499;52.366;12.912;2023-05-07T01:04:19;17.63;;;9.98;;
57667;SDS011;43499;52.366;12.912;2023-05-07T01:05:20;12.48;;;8.10;;
57667;SDS011;43499;52.366;12.912;2023-05-07T01:06:24;5.25;;;3.95;;
57667;SDS011;43499;52.366;12.912;2023-05-07T01:07:28;15.57;;;9.60;;
57667;SDS011;43499;52.366;12.912;2023-05-07T01:08:31;18.10;;;9.32;;
57667;SDS011;43499;52.366;12.912;2023-05-07T01:09:33;15.85;;;10.18;;
57667;SDS011;43499;52.366;12.912;2023-05-07T01:10:35;14.98;;;9.82;;
57667;SDS011;43499;52.366;12.912;2023-05-07T01:11:37;13.02;;;7.93;;
57667;SDS011;43499;52.366;12.912;2023-05-07T01:12:38;16.30;;;10.40;;
57667;SDS011;43499;52.366;12.912;2023-05-07T01:13:40;13.63;;;9.30;;
57667;SDS011;43499;52.366;12.912;2023-05-07T01:14:42;13.70;;;8.43;;
57667;SDS011;43499;52.366;12.912;2023-05-07T01:15:43;14.48;;;8.15;;
57667;SDS011;43499;52.366;12.912;2023-05-07T01:16:44;13.20;;;8.77;;
57667;SDS011;43499;52.366;12.912;2023-05-07T01:17:46;14.18;;;9.60;;
57667;SDS011;43499;52.366;12.912;2023-05-07T01:18:53;13.38;;;9.68;;
57667;SDS011;43499;52.366;12.912;2023-05-07T01:19:54;13.65;;;9.00;;
57667;SDS011;43499;52.366;12.912;2023-05-07T01:20:58;13.98;;;10.05;;
57667;SDS011;43499;52.366;12.912;2023-05-07T01:22:01;13.75;;;9.15;;
57667;SDS011;43499;52.366;12.912;2023-05-07T01:23:05;14.35;;;9.38;;
57667;SDS011;43499;52.366;12.912;2023-05-07T01:24:07;14.43;;;10.18;;
57667;SDS011;43499;52.366;12.912;2023-05-07T01:25:08;14.95;;;9.70;;
57667;SDS011;43499;52.366;12.912;2023-05-07T01:26:12;18.17;;;10.65;;
57667;SDS011;43499;52.366;12.912;2023-05-07T01:27:13;13.85;;;8.65;;
57667;SDS011;43499;52.366;12.912;2023-05-07T01:28:14;15.35;;;9.90;;
57667;SDS011;43499;52.366;12.912;2023-05-07T01:29:17;13.27;;;7.57;;
57667;SDS011;43499;52.366;12.912;2023-05-07T01:30:19;15.05;;;10.05;;
57667;SDS011;43499;52.366;12.912;2023-05-07T01:31:22;17.25;;;9.88;;
57667;SDS011;43499;52.366;12.912;2023-05-07T01:32:48;16.42;;;10.55;;
57667;SDS011;43499;52.366;12.912;2023-05-07T01:33:51;16.05;;;7.65;;
57667;SDS011;43499;52.366;12.912;2023-05-07T01:34:53;14.43;;;10.25;;
57667;SDS011;43499;52.366;12.912;2023-05-07T01:35:55;19.15;;;11.00;;
57667;SDS011;43499;52.366;12.912;2023-05-07T01:36:57;14.07;;;9.30;;
57667;SDS011;43499;52.366;12.912;2023-05-07T01:38:00;15.25;;;10.13;;
57667;SDS011;43499;52.366;12.912;2023-05-07T01:39:01;16.10;;;10.25;;
57667;SDS011;43499;52.366;12.912;2023-05-07T01:40:03;13.48;;;9.48;;
57667;SDS011;43499;52.366;12.912;2023-05-07T01:41:05;13.43;;;9.75;;
57667;SDS011;43499;52.366;12.912;2023-05-07T01:42:08;14.70;;;9.93;;
57667;SDS011;43499;52.366;12.912;2023-05-07T01:43:09;14.30;;;9.35;;
57667;SDS011;43499;52.366;12.912;2023-05-07T01:44:12;13.27;;;9.98;;
57667;SDS011;43499;52.366;12.912;2023-05-07T01:45:14;15.38;;;10.20;;
57667;SDS011;43499;52.366;12.912;2023-05-07T01:46:15;13.75;;;8.55;;
57667;SDS011;43499;52.366;12.912;2023-05-07T01:47:18;14.05;;;9.15;;
57667;SDS011;43499;52.366;12.912;2023-05-07T01:48:20;13.80;;;8.73;;
57667;SDS011;43499;52.366;12.912;2023-05-07T01:49:21;11.07;;;7.93;;
57667;SDS011;43499;52.366;12.912;2023-05-07T01:50:22;13.20;;;8.18;;
57667;SDS011;43499;52.366;12.912;2023-05-07T01:51:26;18.45;;;9.43;;
57667;SDS011;43499;52.366;12.912;2023-05-07T01:52:27;16.13;;;10.15;;
57667;SDS011;43499;52.366;12.912;2023-05-07T01:53:30;11.90;;;8.75;;
57667;SDS011;43499;52.366;12.912;2023-05-07T01:54:36;16.23;;;9.80;;
57667;SDS011;43499;52.366;12.912;2023-05-07T01:55:38;13.85;;;10.27;;
57667;SDS011;43499;52.366;12.912;2023-05-07T01:56:39;13.10;;;8.27;;
57667;SDS011;43499;52.366;12.912;2023-05-07T01:57:40;14.30;;;8.65;;
57667;SDS011;43499;52.366;12.912;2023-05-07T01:58:41;13.75;;;8.60;;
57667;SDS011;43499;52.366;12.912;2023-05-07T01:59:42;12.48;;;8.35;;
57667;SDS011;43499;52.366;12.912;2023-05-07T02:00:43;12.18;;;9.13;;
57667;SDS011;43499;52.366;12.912;2023-05-07T02:01:44;14.30;;;9.48;;
57667;SDS011;43499;52.366;12.912;2023-05-07T02:02:46;14.23;;;8.80;;
57667;SDS011;43499;52.366;12.912;2023-05-07T02:04:05;13.70;;;8.52;;
57667;SDS011;43499;52.366;12.912;2023-05-07T02:05:06;15.18;;;8.90;;
57667;SDS011;43499;52.366;12.912;2023-05-07T02:06:07;13.70;;;8.98;;
57667;SDS011;43499;52.366;12.912;2023-05-07T02:07:11;13.60;;;8.75;;
57667;SDS011;43499;52.366;12.912;2023-05-07T02:08:12;13.60;;;8.57;;
57667;SDS011;43499;52.366;12.912;2023-05-07T02:09:14;13.77;;;8.48;;
57667;SDS011;43499;52.366;12.912;2023-05-07T02:10:17;9.40;;;6.43;;
57667;SDS011;43499;52.366;12.912;2023-05-07T02:11:18;10.80;;;7.10;;
57667;SDS011;43499;52.366;12.912;2023-05-07T02:12:19;6.22;;;4.68;;
57667;SDS011;43499;52.366;12.912;2023-05-07T02:13:20;15.57;;;7.70;;
57667;SDS011;43499;52.366;12.912;2023-05-07T02:14:22;12.98;;;8.15;;
57667;SDS011;43499;52.366;12.912;2023-05-07T02:15:23;12.65;;;8.43;;
57667;SDS011;43499;52.366;12.912;2023-05-07T02:16:26;14.13;;;9.02;;
57667;SDS011;43499;52.366;12.912;2023-05-07T02:17:28;13.68;;;9.40;;
57667;SDS011;43499;52.366;12.912;2023-05-07T02:18:32;13.88;;;8.82;;
57667;SDS011;43499;52.366;12.912;2023-05-07T02:19:33;14.85;;;9.48;;
57667;SDS011;43499;52.366;12.912;2023-05-07T02:20:34;14.00;;;8.52;;
57667;SDS011;43499;52.366;12.912;2023-05-07T02:21:35;12.75;;;9.05;;
57667;SDS011;43499;52.366;12.912;2023-05-07T02:22:36;15.35;;;8.98;;
57667;SDS011;43499;52.366;12.912;2023-05-07T02:23:37;15.43;;;9.63;;
57667;SDS011;43499;52.366;12.912;2023-05-07T02:24:39;13.77;;;8.52;;
57667;SDS011;43499;52.366;12.912;2023-05-07T02:25:40;12.95;;;8.98;;
57667;SDS011;43499;52.366;12.912;2023-05-07T02:26:41;15.70;;;9.18;;
57667;SDS011;43499;52.366;12.912;2023-05-07T02:27:42;13.85;;;8.30;;
57667;SDS011;43499;52.366;12.912;2023-05-07T02:28:43;10.48;;;7.38;;
57667;SDS011;43499;52.366;12.912;2023-05-07T02:29:45;14.90;;;9.45;;
57667;SDS011;43499;52.366;12.912;2023-05-07T02:30:46;10.60;;;6.13;;
57667;SDS011;43499;52.366;12.912;2023-05-07T02:31:47;13.02;;;8.48;;
57667;SDS011;43499;52.366;12.912;2023-05-07T02:32:53;13.02;;;8.40;;
57667;SDS011;43499;52.366;12.912;2023-05-07T02:33:54;13.32;;;8.68;;
57667;SDS011;43499;52.366;12.912;2023-05-07T02:34:55;10.52;;;8.15;;
57667;SDS011;43499;52.366;12.912;2023-05-07T02:35:56;15.45;;;8.20;;
57667;SDS011;43499;52.366;12.912;2023-05-07T02:36:57;17.33;;;8.80;;
57667;SDS011;43499;52.366;12.912;2023-05-07T02:38:00;13.95;;;8.57;;
57667;SDS011;43499;52.366;12.912;2023-05-07T02:39:01;13.10;;;8.90;;
57667;SDS011;43499;52.366;12.912;2023-05-07T02:40:03;15.13;;;8.25;;
57667;SDS011;43499;52.366;12.912;2023-05-07T02:41:05;13.57;;;8.68;;
57667;SDS011;43499;52.366;12.912;2023-05-07T02:42:06;11.50;;;7.70;;
57667;SDS011;43499;52.366;12.912;2023-05-07T02:43:08;17.40;;;8.80;;
57667;SDS011;43499;52.366;12.912;2023-05-07T02:44:09;11.48;;;8.50;;
57667;SDS011;43499;52.366;12.912;2023-05-07T02:45:10;13.68;;;9.52;;
57667;SDS011;43499;52.366;12.912;2023-05-07T02:46:13;13.02;;;8.73;;
57667;SDS011;43499;52.366;12.912;2023-05-07T02:47:18;14.00;;;8.27;;
57667;SDS011;43499;52.366;12.912;2023-05-07T02:48:20;13.00;;;9.02;;
57667;SDS011;43499;52.366;12.912;2023-05-07T02:49:21;13.70;;;8.73;;
57667;SDS011;43499;52.366;12.912;2023-05-07T02:50:22;13.27;;;8.95;;
57667;SDS011;43499;52.366;12.912;2023-05-07T02:51:23;16.38;;;8.68;;
57667;SDS011;43499;52.366;12.912;2023-05-07T02:52:25;11.93;;;8.35;;
57667;SDS011;43499;52.366;12.912;2023-05-07T02:53:26;11.80;;;8.80;;
57667;SDS011;43499;52.366;12.912;2023-05-07T02:54:27;13.63;;;8.73;;
57667;SDS011;43499;52.366;12.912;2023-05-07T02:55:28;12.07;;;8.32;;
57667;SDS011;43499;52.366;12.912;2023-05-07T02:56:30;16.58;;;8.57;;
57667;SDS011;43499;52.366;12.912;2023-05-07T02:57:31;15.25;;;10.05;;
57667;SDS011;43499;52.366;12.912;2023-05-07T02:58:32;13.10;;;8.73;;
57667;SDS011;43499;52.366;12.912;2023-05-07T02:59:34;10.43;;;6.75;;
57667;SDS011;43499;52.366;12.912;2023-05-07T03:00:36;15.70;;;9.23;;
57667;SDS011;43499;52.366;12.912;2023-05-07T03:01:46;15.82;;;8.55;;
57667;SDS011;43499;52.366;12.912;2023-05-07T03:02:47;13.32;;;9.48;;
57667;SDS011;43499;52.366;12.912;2023-05-07T03:03:49;15.82;;;9.07;;
57667;SDS011;43499;52.366;12.912;2023-05-07T03:04:50;13.40;;;9.35;;
57667;SDS011;43499;52.366;12.912;2023-05-07T03:05:51;12.75;;;9.18;;
57667;SDS011;43499;52.366;12.912;2023-05-07T03:06:52;11.32;;;7.85;;
57667;SDS011;43499;52.366;12.912;2023-05-07T03:07:53;17.45;;;8.23;;
57667;SDS011;43499;52.366;12.912;2023-05-07T03:08:54;12.48;;;7.95;;
57667;SDS011;43499;52.366;12.912;2023-05-07T03:09:55;18.58;;;9.43;;
57667;SDS011;43499;52.366;12.912;2023-05-07T03:10:56;12.18;;;8.57;;
57667;SDS011;43499;52.366;12.912;2023-05-07T03:11:57;12.55;;;8.70;;
57667;SDS011;43499;52.366;12.912;2023-05-07T03:12:58;15.13;;;8.60;;
57667;SDS011;43499;52.366;12.912;2023-05-07T03:14:00;10.35;;;7.50;;
57667;SDS011;43499;52.366;12.912;2023-05-07T03:15:01;9.07;;;7.13;;
57667;SDS011;43499;52.366;12.912;2023-05-07T03:16:02;14.57;;;8.57;;
57667;SDS011;43499;52.366;12.912;2023-05-07T03:17:03;12.88;;;9.13;;
57667;SDS011;43499;52.366;12.912;2023-05-07T03:18:04;14.30;;;8.73;;
57667;SDS011;43499;52.366;12.912;2023-05-07T03:19:05;14.93;;;8.68;;
57667;SDS011;43499;52.366;12.912;2023-05-07T03:20:07;14.00;;;9.65;;
57667;SDS011;43499;52.366;12.912;2023-05-07T03:21:10;12.65;;;8.82;;
57667;SDS011;43499;52.366;12.912;2023-05-07T03:22:11;12.63;;;7.90;;
57667;SDS011;43499;52.366;12.912;2023-05-07T03:23:12;15.27;;;8.13;;
57667;SDS011;43499;52.366;12.912;2023-05-07T03:24:13;10.65;;;7.63;;
57667;SDS011;43499;52.366;12.912;2023-05-07T03:25:14;12.50;;;8.98;;
57667;SDS011;43499;52.366;12.912;2023-05-07T03:26:15;11.75;;;7.07;;
57667;SDS011;43499;52.366;12.912;2023-05-07T03:27:17;12.25;;;7.50;;
57667;SDS011;43499;52.366;12.912;2023-05-07T03:28:19;10.98;;;6.28;;
57667;SDS011;43499;52.366;12.912;2023-05-07T03:29:26;12.95;;;8.05;;
57667;SDS011;43499;52.366;12.912;2023-05-07T03:30:27;12.60;;;7.93;;
57667;SDS011;43499;52.366;12.912;2023-05-07T03:31:28;11.23;;;8.45;;
57667;SDS011;43499;52.366;12.912;2023-05-07T03:32:29;14.32;;;7.32;;
57667;SDS011;43499;52.366;12.912;2023-05-07T03:33:32;10.32;;;6.40;;
57667;SDS011;43499;52.366;12.912;2023-05-07T03:34:34;10.65;;;7.70;;
57667;SDS011;43499;52.366;12.912;2023-05-07T03:35:35;8.45;;;4.97;;
57667;SDS011;43499;52.366;12.912;2023-05-07T03:36:36;9.02;;;5.70;;
57667;SDS011;43499;52.366;12.912;2023-05-07T03:37:39;11.10;;;7.07;;
57667;SDS011;43499;52.366;12.912;2023-05-07T03:38:42;9.57;;;6.25;;
57667;SDS011;43499;52.366;12.912;2023-05-07T03:39:43;9.90;;;6.57;;
57667;SDS011;43499;52.366;12.912;2023-05-07T03:40:44;13.32;;;7.50;;
57667;SDS011;43499;52.366;12.912;2023-05-07T03:41:45;8.45;;;5.55;;
57667;SDS011;43499;52.366;12.912;2023-05-07T03:42:47;8.75;;;5.18;;
57667;SDS011;43499;52.366;12.912;2023-05-07T03:43:49;9.95;;;6.38;;
57667;SDS011;43499;52.366;12.912;2023-05-07T03:44:50;8.13;;;5.78;;
57667;SDS011;43499;52.366;12.912;2023-05-07T03:45:51;11.00;;;6.55;;
57667;SDS011;43499;52.366;12.912;2023-05-07T03:46:59;12.65;;;8.68;;
57667;SDS011;43499;52.366;12.912;2023-05-07T03:48:00;11.40;;;6.00;;
57667;SDS011;43499;52.366;12.912;2023-05-07T03:49:02;8.45;;;5.38;;
57667;SDS011;43499;52.366;12.912;2023-05-07T03:50:03;10.48;;;7.32;;
57667;SDS011;43499;52.366;12.912;2023-05-07T03:51:05;17.52;;;8.10;;
57667;SDS011;43499;52.366;12.912;2023-05-07T03:52:08;11.52;;;7.13;;
57667;SDS011;43499;52.366;12.912;2023-05-07T03:53:09;9.35;;;4.57;;
57667;SDS011;43499;52.366;12.912;2023-05-07T03:54:13;7.40;;;5.30;;
57667;SDS011;43499;52.366;12.912;2023-05-07T03:55:18;7.38;;;5.50;;
57667;SDS011;43499;52.366;12.912;2023-05-07T03:56:24;12.85;;;7.57;;
57667;SDS011;43499;52.366;12.912;2023-05-07T03:57:29;9.00;;;4.55;;
57667;SDS011;43499;52.366;12.912;2023-05-07T03:58:30;11.50;;;7.55;;
57667;SDS011;43499;52.366;12.912;2023-05-07T03:59:34;10.73;;;7.78;;
57667;SDS011;43499;52.366;12.912;2023-05-07T04:00:35;8.73;;;5.22;;
57667;SDS011;43499;52.366;12.912;2023-05-07T04:01:44;12.60;;;8.65;;
57667;SDS011;43499;52.366;12.912;2023-05-07T04:02:49;9.68;;;6.38;;
57667;SDS011;43499;52.366;12.912;2023-05-07T04:03:57;6.88;;;4.63;;
57667;SDS011;43499;52.366;12.912;2023-05-07T04:04:59;6.57;;;4.13;;
57667;SDS011;43499;52.366;12.912;2023-05-07T04:06:01;12.05;;;6.93;;
57667;SDS011;43499;52.366;12.912;2023-05-07T04:07:02;8.18;;;4.82;;
57667;SDS011;43499;52.366;12.912;2023-05-07T04:08:05;10.95;;;6.57;;
57667;SDS011;43499;52.366;12.912;2023-05-07T04:09:12;10.63;;;6.80;;
57667;SDS011;43499;52.366;12.912;2023-05-07T04:10:13;8.73;;;5.80;;
57667;SDS011;43499;52.366;12.912;2023-05-07T04:11:17;13.40;;;7.13;;
57667;SDS011;43499;52.366;12.912;2023-05-07T04:12:18;13.82;;;7.85;;
57667;SDS011;43499;52.366;12.912;2023-05-07T04:13:19;12.18;;;6.30;;
57667;SDS011;43499;52.366;12.912;2023-05-07T04:14:20;13.43;;;7.93;;
57667;SDS011;43499;52.366;12.912;2023-05-07T04:15:22;10.15;;;7.22;;
57667;SDS011;43499;52.366;12.912;2023-05-07T04:16:23;13.15;;;8.63;;
57667;SDS011;43499;52.366;12.912;2023-05-07T04:17:24;11.98;;;7.65;;
57667;SDS011;43499;52.366;12.912;2023-05-07T04:18:25;16.67;;;8.18;;
57667;SDS011;43499;52.366;12.912;2023-05-07T04:19:26;16.38;;;8.80;;
57667;SDS011;43499;52.366;12.912;2023-05-07T04:20:28;22.10;;;9.60;;
57667;SDS011;43499;52.366;12.912;2023-05-07T04:21:36;16.52;;;10.57;;
57667;SDS011;43499;52.366;12.912;2023-05-07T04:22:37;13.02;;;8.75;;
57667;SDS011;43499;52.366;12.912;2023-05-07T04:23:38;14.80;;;9.30;;
57667;SDS011;43499;52.366;12.912;2023-05-07T04:24:43;13.50;;;7.45;;
57667;SDS011;43499;52.366;12.912;2023-05-07T04:25:47;14.27;;;8.68;;
57667;SDS011;43499;52.366;12.912;2023-05-07T04:26:56;9.32;;;6.07;;
57667;SDS011;43499;52.366;12.912;2023-05-07T04:27:59;15.27;;;8.40;;
57667;SDS011;43499;52.366;12.912;2023-05-07T04:29:01;14.13;;;8.18;;
57667;SDS011;43499;52.366;12.912;2023-05-07T04:30:07;13.45;;;7.80;;
57667;SDS011;43499;52.366;12.912;2023-05-07T04:31:12;11.73;;;7.45;;
57667;SDS011;43499;52.366;12.912;2023-05-07T04:32:13;12.52;;;7.20;;
57667;SDS011;43499;52.366;12.912;2023-05-07T04:33:15;11.50;;;7.15;;
57667;SDS011;43499;52.366;12.912;2023-05-07T04:34:21;13.05;;;8.65;;
57667;SDS011;43499;52.366;12.912;2023-05-07T04:35:22;16.02;;;8.98;;
57667;SDS011;43499;52.366;12.912;2023-05-07T04:36:23;12.85;;;8.15;;
57667;SDS011;43499;52.366;12.912;2023-05-07T04:37:33;19.92;;;8.10;;
57667;SDS011;43499;52.366;12.912;2023-05-07T04:38:35;10.75;;;6.88;;
57667;SDS011;43499;52.366;12.912;2023-05-07T04:39:37;12.90;;;7.97;;
57667;SDS011;43499;52.366;12.912;2023-05-07T04:40:39;13.25;;;8.23;;
57667;SDS011;43499;52.366;12.912;2023-05-07T04:41:41;8.88;;;6.07;;
57667;SDS011;43499;52.366;12.912;2023-05-07T04:42:43;13.57;;;8.52;;
57667;SDS011;43499;52.366;12.912;2023-05-07T04:43:44;10.90;;;6.68;;
57667;SDS011;43499;52.366;12.912;2023-05-07T04:44:47;14.73;;;8.48;;
57667;SDS011;43499;52.366;12.912;2023-05-07T04:45:53;13.77;;;9.02;;
57667;SDS011;43499;52.366;12.912;2023-05-07T04:46:57;14.90;;;9.07;;
57667;SDS011;43499;52.366;12.912;2023-05-07T04:47:59;12.50;;;7.13;;
57667;SDS011;43499;52.366;12.912;2023-05-07T04:49:00;10.23;;;6.80;;
57667;SDS011;43499;52.366;12.912;2023-05-07T04:50:01;12.30;;;7.45;;
57667;SDS011;43499;52.366;12.912;2023-05-07T04:51:02;17.23;;;8.35;;
57667;SDS011;43499;52.366;12.912;2023-05-07T04:52:03;12.98;;;8.90;;
57667;SDS011;43499;52.366;12.912;2023-05-07T04:53:04;11.48;;;7.25;;
57667;SDS011;43499;52.366;12.912;2023-05-07T04:54:05;9.40;;;6.10;;
57667;SDS011;43499;52.366;12.912;2023-05-07T04:55:07;10.00;;;7.07;;
57667;SDS011;43499;52.366;12.912;2023-05-07T04:56:12;9.43;;;5.85;;
57667;SDS011;43499;52.366;12.912;2023-05-07T04:57:16;8.48;;;5.82;;
57667;SDS011;43499;52.366;12.912;2023-05-07T04:58:18;9.95;;;6.38;;
57667;SDS011;43499;52.366;12.912;2023-05-07T04:59:21;8.98;;;6.07;;
57667;SDS011;43499;52.366;12.912;2023-05-07T05:00:24;16.08;;;7.97;;
57667;SDS011;43499;52.366;12.912;2023-05-07T05:01:27;14.77;;;8.50;;
57667;SDS011;43499;52.366;12.912;2023-05-07T05:02:28;10.98;;;8.15;;
57667;SDS011;43499;52.366;12.912;2023-05-07T05:03:29;10.02;;;6.97;;
57667;SDS011;43499;52.366;12.912;2023-05-07T05:04:31;10.80;;;6.32;;
57667;SDS011;43499;52.366;12.912;2023-05-07T05:05:32;8.77;;;6.15;;
57667;SDS011;43499;52.366;12.912;2023-05-07T05:06:33;9.35;;;5.68;;
57667;SDS011;43499;52.366;12.912;2023-05-07T05:07:37;11.05;;;6.93;;
57667;SDS011;43499;52.366;12.912;2023-05-07T05:08:39;9.68;;;6.75;;
57667;SDS011;43499;52.366;12.912;2023-05-07T05:09:40;11.98;;;7.05;;
57667;SDS011;43499;52.366;12.912;2023-05-07T05:10:42;7.32;;;5.30;;
57667;SDS011;43499;52.366;12.912;2023-05-07T05:11:44;10.40;;;7.63;;
57667;SDS011;43499;52.366;12.912;2023-05-07T05:12:45;16.23;;;7.00;;
57667;SDS011;43499;52.366;12.912;2023-05-07T05:13:46;8.75;;;6.28;;
57667;SDS011;43499;52.366;12.912;2023-05-07T05:14:52;15.27;;;9.27;;
57667;SDS011;43499;52.366;12.912;2023-05-07T05:15:53;8.85;;;6.53;;
57667;SDS011;43499;52.366;12.912;2023-05-07T05:16:54;8.63;;;6.63;;
57667;SDS011;43499;52.366;12.912;2023-05-07T05:17:56;14.00;;;7.82;;
57667;SDS011;43499;52.366;12.912;2023-05-07T05:18:57;16.55;;;9.20;;
57667;SDS011;43499;52.366;12.912;2023-05-07T05:19:58;10.63;;;7.85;;
57667;SDS011;43499;52.366;12.912;2023-05-07T05:20:59;18.38;;;10.98;;
57667;SDS011;43499;52.366;12.912;2023-05-07T05:22:01;14.25;;;9.80;;
57667;SDS011;43499;52.366;12.912;2023-05-07T05:23:02;12.70;;;8.50;;
57667;SDS011;43499;52.366;12.912;2023-05-07T05:24:04;11.13;;;6.75;;
57667;SDS011;43499;52.366;12.912;2023-05-07T05:25:06;11.40;;;5.40;;
57667;SDS011;43499;52.366;12.912;2023-05-07T05:26:07;7.97;;;6.22;;
57667;SDS011;43499;52.366;12.912;2023-05-07T05:27:08;12.55;;;8.63;;
57667;SDS011;43499;52.366;12.912;2023-05-07T05:28:09;12.15;;;8.70;;
57667;SDS011;43499;52.366;12.912;2023-05-07T05:29:11;9.88;;;6.22;;
57667;SDS011;43499;52.366;12.912;2023-05-07T05:30:14;14.07;;;9.38;;
57667;SDS011;43499;52.366;12.912;2023-05-07T05:31:18;8.85;;;5.88;;
57667;SDS011;43499;52.366;12.912;2023-05-07T05:32:20;10.75;;;7.47;;
57667;SDS011;43499;52.366;12.912;2023-05-07T05:33:22;15.52;;;9.35;;
57667;SDS011;43499;52.366;12.912;2023-05-07T05:34:23;14.85;;;7.80;;
57667;SDS011;43499;52.366;12.912;2023-05-07T05:35:24;12.35;;;7.53;;
57667;SDS011;43499;52.366;12.912;2023-05-07T05:36:25;13.30;;;8.75;;
57667;SDS011;43499;52.366;12.912;2023-05-07T05:37:29;8.75;;;6.15;;
57667;SDS011;43499;52.366;12.912;2023-05-07T05:38:32;12.20;;;8.10;;
57667;SDS011;43499;52.366;12.912;2023-05-07T05:39:33;11.77;;;8.38;;
57667;SDS011;43499;52.366;12.912;2023-05-07T05:40:34;13.95;;;8.50;;
57667;SDS011;43499;52.366;12.912;2023-05-07T05:41:35;14.32;;;10.20;;
57667;SDS011;43499;52.366;12.912;2023-05-07T05:42:38;12.65;;;7.75;;
57667;SDS011;43499;52.366;12.912;2023-05-07T05:43:39;12.35;;;7.18;;
57667;SDS011;43499;52.366;12.912;2023-05-07T05:44:40;12.18;;;6.97;;
57667;SDS011;43499;52.366;12.912;2023-05-07T05:45:41;6.85;;;4.25;;
57667;SDS011;43499;52.366;12.912;2023-05-07T05:46:42;11.18;;;5.97;;
57667;SDS011;43499;52.366;12.912;2023-05-07T05:47:43;15.60;;;7.70;;
57667;SDS011;43499;52.366;12.912;2023-05-07T05:48:44;11.65;;;7.35;;
57667;SDS011;43499;52.366;12.912;2023-05-07T05:49:46;13.38;;;7.25;;
57667;SDS011;43499;52.366;12.912;2023-05-07T05:50:49;9.60;;;6.60;;
57667;SDS011;43499;52.366;12.912;2023-05-07T05:51:52;11.82;;;6.40;;
57667;SDS011;43499;52.366;12.912;2023-05-07T05:52:55;11.13;;;8.13;;
57667;SDS011;43499;52.366;12.912;2023-05-07T05:53:56;8.75;;;6.18;;
57667;SDS011;43499;52.366;12.912;2023-05-07T05:54:57;13.68;;;9.13;;
57667;SDS011;43499;52.366;12.912;2023-05-07T05:55:58;11.45;;;7.50;;
57667;SDS011;43499;52.366;12.912;2023-05-07T05:57:00;14.30;;;9.27;;
57667;SDS011;43499;52.366;12.912;2023-05-07T05:58:02;13.90;;;9.65;;
57667;SDS011;43499;52.366;12.912;2023-05-07T05:59:04;11.73;;;7.85;;
57667;SDS011;43499;52.366;12.912;2023-05-07T06:00:06;11.90;;;8.57;;
57667;SDS011;43499;52.366;12.912;2023-05-07T06:01:19;12.50;;;8.30;;
57667;SDS011;43499;52.366;12.912;2023-05-07T06:02:21;15.25;;;9.93;;
57667;SDS011;43499;52.366;12.912;2023-05-07T06:03:22;14.60;;;8.50;;